Time;durP1;ratioP1;P1;durP2;ratioP2;P2;SDS_P1;SDS_P2;PMS_P1;PMS_P2;Temp;Humidity;BMP_temperature;BMP_pressure;BME280_temperature;BME280_humidity;BME280_pressure;Samples;Min_cycle;Max_cycle;Signal;HPM_P1;HPM_P2
2021/12/15 00:02:10;;;;;;;32.63;24.03;;;;;;;5.68;100.00;99440.41;5056509;28;20288;-72
2021/12/15 00:04:36;;;;;;;33.67;23.00;;;;;;;5.68;100.00;99442.22;5056763;28;20221;-72
2021/12/15 00:07:03;;;;;;;31.77;22.87;;;;;;;5.65;100.00;99439.91;5056447;28;20511;-72
2021/12/15 00:09:30;;;;;;;30.20;22.10;;;;;;;5.66;100.00;99446.84;5056782;28;20185;-72
2021/12/15 00:11:56;;;;;;;32.00;21.93;;;;;;;5.64;100.00;99439.06;5056504;28;20252;-73
2021/12/15 00:14:23;;;;;;;27.43;20.47;;;;;;;5.66;100.00;99437.09;5056476;28;20221;-72
2021/12/15 00:16:50;;;;;;;30.17;20.83;;;;;;;5.73;100.00;99434.66;5056482;28;20190;-72
2021/12/15 00:19:18;;;;;;;28.93;20.00;;;;;;;5.73;100.00;99435.50;5056518;28;20209;-72
2021/12/15 00:21:45;;;;;;;30.27;21.10;;;;;;;5.71;100.00;99434.00;5056560;28;20237;-72
2021/12/15 00:24:11;;;;;;;27.70;20.30;;;;;;;5.71;100.00;99434.84;5056697;28;20304;-72
2021/12/15 00:26:38;;;;;;;31.47;19.60;;;;;;;5.74;100.00;99436.34;5056555;28;20280;-72
2021/12/15 00:29:07;;;;;;;29.47;20.40;;;;;;;5.75;100.00;99436.16;5056478;28;20207;-73
2021/12/15 00:31:35;;;;;;;28.63;20.87;;;;;;;5.73;100.00;99442.56;5056474;28;20531;-72
2021/12/15 00:34:03;;;;;;;30.40;20.97;;;;;;;5.72;100.00;99435.66;5056123;28;20228;-72
2021/12/15 00:36:29;;;;;;;29.07;20.40;;;;;;;5.78;100.00;99451.69;5056458;28;20193;-72
2021/12/15 00:38:56;;;;;;;29.70;20.70;;;;;;;5.76;100.00;99444.91;5056301;28;20204;-72
2021/12/15 00:41:23;;;;;;;29.20;21.30;;;;;;;5.75;100.00;99445.91;5056380;28;20294;-72
2021/12/15 00:43:49;;;;;;;29.17;20.87;;;;;;;5.80;100.00;99441.00;5056299;28;20201;-72
2021/12/15 00:46:16;;;;;;;28.97;20.93;;;;;;;5.77;100.00;99449.19;5056304;28;20287;-72
2021/12/15 00:48:42;;;;;;;30.93;21.47;;;;;;;5.74;100.00;99438.97;5056057;28;20189;-72
2021/12/15 00:51:09;;;;;;;34.23;22.40;;;;;;;5.71;100.00;99441.91;5056254;28;20277;-72
2021/12/15 00:53:36;;;;;;;31.67;21.13;;;;;;;5.69;100.00;99451.78;5058726;28;20490;-72
2021/12/15 00:56:03;;;;;;;29.80;20.67;;;;;;;5.71;100.00;99448.03;5060169;28;20589;-72
2021/12/15 00:58:30;;;;;;;29.53;20.03;;;;;;;5.72;100.00;99454.97;5060045;28;20189;-72
2021/12/15 01:01:01;;;;;;;28.50;19.53;;;;;;;5.70;100.00;99449.00;5060186;28;20210;-72
2021/12/15 01:03:30;;;;;;;28.33;19.13;;;;;;;5.89;100.00;99450.66;5060174;28;20280;-72
2021/12/15 01:06:06;;;;;;;25.20;17.73;;;;;;;6.02;100.00;99454.50;5060119;28;20220;-72
2021/12/15 01:08:35;;;;;;;24.53;17.60;;;;;;;5.97;100.00;99461.25;5060093;28;20185;-72
2021/12/15 01:11:11;;;;;;;27.00;19.00;;;;;;;5.90;100.00;99449.66;5059787;28;20601;-72
2021/12/15 01:22:00;;;;;;;32.53;20.70;;;;;;;5.83;100.00;99456.56;5059848;28;20223;-72
2021/12/15 01:24:27;;;;;;;35.90;22.67;;;;;;;5.78;100.00;99450.84;5059739;28;20227;-72
2021/12/15 01:26:54;;;;;;;34.70;22.13;;;;;;;5.74;100.00;99452.16;5059796;28;20221;-72
2021/12/15 01:29:20;;;;;;;36.00;22.50;;;;;;;5.67;100.00;99448.47;5059736;28;20199;-72
2021/12/15 01:31:47;;;;;;;33.93;22.10;;;;;;;5.69;100.00;99457.91;5059620;28;20247;-72
2021/12/15 01:34:13;;;;;;;37.37;22.77;;;;;;;5.73;100.00;99464.53;5059555;28;20221;-72
2021/12/15 01:36:40;;;;;;;37.87;23.23;;;;;;;5.66;100.00;99462.66;5059631;28;20284;-72
2021/12/15 01:39:06;;;;;;;40.23;24.83;;;;;;;5.70;100.00;99466.66;5059522;28;20196;-72
2021/12/15 01:41:34;;;;;;;33.73;21.80;;;;;;;5.72;100.00;99462.88;5059571;28;20194;-73
2021/12/15 01:46:59;;;;;;;31.43;21.10;;;;;;;5.66;100.00;99475.84;5059428;28;20177;-72
2021/12/15 01:49:42;;;;;;;32.43;21.67;;;;;;;5.62;100.00;99461.31;5059040;28;20246;-72
2021/12/15 01:52:34;;;;;;;35.40;21.20;;;;;;;5.61;100.00;99471.03;5059040;28;20608;-72
2021/12/15 01:55:21;;;;;;;31.97;21.77;;;;;;;5.60;100.00;99469.38;5054370;28;20232;-72
2021/12/15 01:57:48;;;;;;;35.13;22.57;;;;;;;5.55;100.00;99466.38;5059208;28;20499;-72
2021/12/15 02:00:20;;;;;;;32.87;21.47;;;;;;;5.57;100.00;99472.31;5058760;28;20519;-72
2021/12/15 02:02:46;;;;;;;32.57;21.43;;;;;;;5.59;100.00;99466.88;5059104;28;20185;-72
2021/12/15 02:05:13;;;;;;;36.90;22.23;;;;;;;5.58;100.00;99467.88;5057618;28;20656;-72
2021/12/15 02:07:43;;;;;;;35.40;22.10;;;;;;;5.57;100.00;99467.03;5058723;28;20276;-72
2021/12/15 02:10:11;;;;;;;32.80;21.83;;;;;;;5.62;100.00;99466.59;5058852;28;20205;-73
2021/12/15 02:12:41;;;;;;;34.67;21.63;;;;;;;5.62;100.00;99461.31;5058612;28;20580;-72
2021/12/15 02:15:17;;;;;;;31.87;20.83;;;;;;;5.61;100.00;99460.47;5058853;28;20225;-72
2021/12/15 02:17:45;;;;;;;31.73;21.43;;;;;;;5.62;100.00;99456.88;5058532;28;20550;-72
2021/12/15 02:20:15;;;;;;;31.87;21.87;;;;;;;5.56;100.00;99460.09;5058718;28;20213;-72
2021/12/15 02:22:43;;;;;;;35.07;21.63;;;;;;;5.63;100.00;99457.69;5058673;28;20189;-72
2021/12/15 02:25:14;;;;;;;34.07;21.93;;;;;;;5.66;100.00;99460.81;5058312;28;20221;-72
2021/12/15 02:27:41;;;;;;;31.63;21.30;;;;;;;5.69;100.00;99455.25;5058640;28;20192;-72
2021/12/15 02:30:42;;;;;;;35.40;22.73;;;;;;;5.66;100.00;99454.75;5058711;28;20189;-72
2021/12/15 02:33:36;;;;;;;37.53;24.13;;;;;;;5.71;100.00;99461.22;5058170;28;20703;-72
2021/12/15 02:38:46;;;;;;;34.10;24.13;;;;;;;5.66;100.00;99460.03;5058382;28;20172;-73
2021/12/15 02:41:20;;;;;;;36.80;24.43;;;;;;;5.63;100.00;99461.16;5058394;28;20300;-72
2021/12/15 02:44:14;;;;;;;36.67;23.20;;;;;;;5.61;100.00;99468.38;5057974;28;20576;-72
2021/12/15 02:46:43;;;;;;;35.73;23.53;;;;;;;5.62;100.00;99461.31;5056491;28;20207;-72
2021/12/15 02:49:11;;;;;;;37.80;24.00;;;;;;;5.59;100.00;99461.59;5058201;28;20190;-73
2021/12/15 02:51:39;;;;;;;38.07;23.27;;;;;;;5.62;100.00;99459.50;5057848;28;20611;-72
2021/12/15 02:54:08;;;;;;;32.93;22.80;;;;;;;5.64;100.00;99452.25;5057781;28;20217;-72
2021/12/15 02:56:36;;;;;;;41.80;24.73;;;;;;;5.61;100.00;99452.56;5057820;28;20280;-72
2021/12/15 02:59:05;;;;;;;35.53;23.50;;;;;;;5.63;100.00;99447.97;5058093;28;20189;-72
2021/12/15 03:01:41;;;;;;;38.70;25.20;;;;;;;5.67;100.00;99449.31;5057976;28;20213;-72
2021/12/15 03:04:26;;;;;;;30.10;21.83;;;;;;;5.70;100.00;99442.91;5057566;28;20222;-72
2021/12/15 03:07:05;;;;;;;32.00;22.47;;;;;;;5.70;100.00;99450.81;5057625;28;20186;-72
2021/12/15 03:15:33;;;;;;;33.03;23.13;;;;;;;5.69;100.00;99451.78;5057704;28;20208;-72
2021/12/15 03:18:21;;;;;;;32.80;22.30;;;;;;;5.69;100.00;99457.91;5057340;28;20239;-72
2021/12/15 03:21:10;;;;;;;32.90;21.07;;;;;;;5.69;100.00;99471.09;5057498;28;20248;-72
2021/12/15 03:23:58;;;;;;;33.57;22.20;;;;;;;5.70;100.00;99469.28;5057601;28;20284;-72
2021/12/15 03:26:33;;;;;;;34.17;22.53;;;;;;;5.72;100.00;99475.22;5057543;28;20206;-73
2021/12/15 03:34:50;;;;;;;30.40;21.90;;;;;;;5.77;100.00;99470.31;5057347;28;20553;-72
2021/12/15 03:37:26;;;;;;;33.83;22.60;;;;;;;5.73;100.00;99479.50;5057271;28;20507;-72
2021/12/15 03:39:59;;;;;;;25.87;19.63;;;;;;;5.74;100.00;99468.00;5057256;28;20244;-72
2021/12/15 03:42:32;;;;;;;27.10;20.47;;;;;;;5.70;100.00;99474.56;5056844;28;20289;-72
2021/12/15 03:44:59;;;;;;;27.20;20.47;;;;;;;5.71;100.00;99465.66;5056715;28;20221;-72
2021/12/15 03:47:31;;;;;;;31.43;20.80;;;;;;;5.71;100.00;99481.50;5057054;28;20199;-72
2021/12/15 03:49:59;;;;;;;34.03;22.30;;;;;;;5.72;100.00;99476.06;5057055;28;20186;-72
2021/12/15 03:52:27;;;;;;;34.73;22.60;;;;;;;5.68;100.00;99480.00;5057562;28;20231;-72
2021/12/15 03:54:54;;;;;;;31.47;21.67;;;;;;;5.74;100.00;99476.72;5056903;28;20221;-72
2021/12/15 03:57:21;;;;;;;31.93;20.93;;;;;;;5.72;100.00;99477.88;5056862;28;20208;-72
2021/12/15 03:59:49;;;;;;;29.77;20.50;;;;;;;5.75;100.00;99477.56;5056782;28;20287;-72
2021/12/15 04:02:18;;;;;;;32.23;20.77;;;;;;;5.70;100.00;99478.00;5056768;28;20284;-72
2021/12/15 04:04:46;;;;;;;32.00;21.27;;;;;;;5.70;100.00;99487.75;5056269;28;20334;-72
2021/12/15 04:07:14;;;;;;;30.53;21.57;;;;;;;5.72;100.00;99485.78;5056319;28;20600;-72
2021/12/15 04:09:41;;;;;;;28.70;21.33;;;;;;;5.72;100.00;99483.97;5056372;28;20570;-72
2021/12/15 04:12:08;;;;;;;30.43;21.17;;;;;;;5.76;100.00;99482.69;5056470;28;20209;-72
2021/12/15 04:14:43;;;;;;;29.70;19.33;;;;;;;5.73;100.00;99477.72;5056658;28;20316;-72
2021/12/15 04:17:26;;;;;;;26.50;19.37;;;;;;;5.77;100.00;99480.88;5056183;28;20649;-72
2021/12/15 04:19:57;;;;;;;28.77;20.37;;;;;;;5.75;100.00;99475.75;5056421;28;20281;-72
2021/12/15 04:22:25;;;;;;;30.73;20.43;;;;;;;5.72;100.00;99480.50;5056622;28;20280;-72
2021/12/15 04:24:53;;;;;;;26.93;20.17;;;;;;;5.74;100.00;99484.66;5056353;28;20221;-71
2021/12/15 04:27:21;;;;;;;28.60;20.37;;;;;;;5.74;100.00;99476.72;5056333;28;20192;-73
2021/12/15 04:29:51;;;;;;;28.20;20.30;;;;;;;5.77;100.00;99480.88;5056297;28;20205;-72
2021/12/15 04:32:34;;;;;;;28.47;19.83;;;;;;;5.78;100.00;99483.34;5056137;28;20193;-72
2021/12/15 04:35:01;;;;;;;26.57;19.07;;;;;;;5.78;100.00;99486.00;5055964;28;20231;-72
2021/12/15 04:37:28;;;;;;;29.10;20.10;;;;;;;5.79;100.00;99484.19;5055877;28;20212;-72
2021/12/15 04:39:54;;;;;;;27.17;18.80;;;;;;;5.77;100.00;99486.16;5056025;28;20200;-72
2021/12/15 04:42:23;;;;;;;30.17;20.97;;;;;;;5.78;100.00;99493.91;5056014;28;20197;-72
2021/12/15 04:44:52;;;;;;;30.27;20.10;;;;;;;5.76;100.00;99498.53;5055914;28;20228;-72
2021/12/15 04:47:18;;;;;;;27.07;20.30;;;;;;;5.76;100.00;99489.78;5056027;28;20280;-72
2021/12/15 04:49:50;;;;;;;28.27;20.30;;;;;;;5.79;100.00;99495.56;5056029;28;20223;-73
2021/12/15 04:52:19;;;;;;;29.77;20.20;;;;;;;5.74;100.00;99491.75;5056112;28;20194;-73
2021/12/15 04:54:46;;;;;;;27.87;19.93;;;;;;;5.78;100.00;99486.00;5055755;28;20221;-72
2021/12/15 04:57:15;;;;;;;28.57;19.40;;;;;;;5.78;100.00;99493.06;5056159;28;20283;-72
2021/12/15 04:59:42;;;;;;;28.40;19.67;;;;;;;5.78;100.00;99490.44;5056024;28;20201;-72
2021/12/15 05:02:10;;;;;;;26.70;19.77;;;;;;;5.77;100.00;99488.78;5055972;28;20217;-72
2021/12/15 05:04:36;;;;;;;29.30;20.27;;;;;;;5.77;100.00;99486.97;5055392;28;20644;-72
2021/12/15 05:07:04;;;;;;;29.03;20.03;;;;;;;5.78;100.00;99491.28;5055731;28;20200;-72
2021/12/15 05:09:31;;;;;;;26.63;20.17;;;;;;;5.82;100.00;99479.47;5055621;28;20492;-72
2021/12/15 05:11:57;;;;;;;25.47;19.97;;;;;;;5.83;100.00;99496.13;5055696;28;20304;-72
2021/12/15 05:14:26;;;;;;;28.83;20.43;;;;;;;5.80;100.00;99493.75;5055700;28;20243;-72
2021/12/15 05:16:54;;;;;;;27.23;19.67;;;;;;;5.81;100.00;99495.44;5055849;28;20194;-72
2021/12/15 05:19:21;;;;;;;29.17;20.37;;;;;;;5.80;100.00;99488.50;5055751;28;20212;-72
2021/12/15 05:21:50;;;;;;;29.33;20.30;;;;;;;5.81;100.00;99498.09;5055463;28;20213;-73
2021/12/15 05:24:30;;;;;;;26.57;19.37;;;;;;;5.79;100.00;99498.19;5055570;28;20248;-72
2021/12/15 05:27:08;;;;;;;26.73;19.53;;;;;;;5.81;100.00;99493.66;5055625;28;20205;-72
2021/12/15 05:29:35;;;;;;;27.77;19.73;;;;;;;5.85;100.00;99496.78;5055645;28;20193;-72
2021/12/15 05:32:03;;;;;;;27.83;19.33;;;;;;;5.82;100.00;99499.75;5056487;28;20434;-72
2021/12/15 05:34:29;;;;;;;26.97;19.47;;;;;;;5.82;100.00;99505.84;5055881;28;20225;-72
2021/12/15 05:36:56;;;;;;;24.53;18.40;;;;;;;5.83;100.00;99506.69;5055989;28;20198;-72
2021/12/15 05:39:24;;;;;;;27.27;19.13;;;;;;;5.80;100.00;99502.56;5057490;28;20189;-72
2021/12/15 05:41:52;;;;;;;25.23;18.10;;;;;;;5.84;100.00;99503.06;5059160;28;20216;-72
2021/12/15 05:44:19;;;;;;;24.77;17.77;;;;;;;5.82;100.00;99507.66;5058568;28;20221;-73
2021/12/15 05:46:46;;;;;;;23.27;17.63;;;;;;;5.86;100.00;99516.94;5059452;28;20194;-72
2021/12/15 05:49:13;;;;;;;22.70;17.60;;;;;;;5.86;100.00;99516.94;5058983;28;20193;-73
2021/12/15 05:51:39;;;;;;;22.77;16.70;;;;;;;5.86;100.00;99516.94;5058420;28;20189;-72
2021/12/15 05:54:07;;;;;;;24.80;17.50;;;;;;;5.84;100.00;99522.34;5058524;28;20227;-75
2021/12/15 05:56:34;;;;;;;23.10;16.80;;;;;;;5.91;100.00;99525.22;5058981;28;20194;-73
2021/12/15 05:59:00;;;;;;;24.10;17.83;;;;;;;5.83;100.00;99518.06;5058889;28;20296;-72
2021/12/15 06:01:28;;;;;;;21.57;16.67;;;;;;;5.85;100.00;99525.84;5058605;28;20304;-75
2021/12/15 06:03:55;;;;;;;21.77;16.83;;;;;;;5.85;100.00;99531.09;5058717;28;20585;-75
2021/12/15 06:06:22;;;;;;;21.43;16.10;;;;;;;5.84;100.00;99518.91;5058608;28;20280;-73
2021/12/15 06:08:49;;;;;;;23.77;16.57;;;;;;;5.84;100.00;99535.56;5058337;28;20280;-72
2021/12/15 06:11:16;;;;;;;20.67;16.23;;;;;;;5.90;100.00;99534.97;5057953;28;20209;-72
2021/12/15 06:13:47;;;;;;;21.27;15.53;;;;;;;5.90;100.00;99534.13;5057699;28;20219;-72
2021/12/15 06:16:13;;;;;;;21.63;16.00;;;;;;;5.88;100.00;99539.53;5058340;28;20193;-72
2021/12/15 06:18:40;;;;;;;17.97;13.90;;;;;;;5.88;100.00;99539.53;5057424;28;20276;-73
2021/12/15 06:21:06;;;;;;;16.23;12.40;;;;;;;5.84;100.00;99532.91;5057337;28;20209;-73
2021/12/15 06:23:33;;;;;;;15.00;12.47;;;;;;;5.85;100.00;99536.38;5057664;28;20196;-72
2021/12/15 06:26:02;;;;;;;15.87;11.50;;;;;;;5.84;100.00;99537.38;5057601;28;20505;-72
2021/12/15 06:28:31;;;;;;;12.47;10.43;;;;;;;5.86;100.00;99527.47;5057836;28;20193;-72
2021/12/15 06:30:59;;;;;;;11.60;9.10;;;;;;;5.95;99.23;99542.41;5058098;28;20186;-73
2021/12/15 06:33:27;;;;;;;9.83;8.80;;;;;;;5.93;100.00;99539.09;5057784;28;20276;-74
2021/12/15 06:35:57;;;;;;;11.33;9.03;;;;;;;5.88;100.00;99542.19;5057617;28;20289;-74
2021/12/15 06:38:27;;;;;;;10.47;9.43;;;;;;;5.88;100.00;99538.72;5057564;28;20220;-74
2021/12/15 06:40:54;;;;;;;10.60;9.50;;;;;;;5.89;100.00;99543.03;5057723;28;20251;-74
2021/12/15 06:43:22;;;;;;;13.30;10.57;;;;;;;5.88;100.00;99550.09;5057560;28;20664;-74
2021/12/15 06:46:12;;;;;;;15.23;11.47;;;;;;;5.87;100.00;99545.81;5057466;28;20316;-73
2021/12/15 06:59:35;;;;;;;16.90;12.33;;;;;;;5.88;100.00;99562.50;5058008;28;20244;-72
2021/12/15 07:02:03;;;;;;;17.97;12.23;;;;;;;5.91;100.00;99559.53;5057787;28;20216;-73
2021/12/15 07:04:30;;;;;;;17.50;12.30;;;;;;;5.91;100.00;99564.78;5057078;28;20312;-73
2021/12/15 07:06:57;;;;;;;15.73;11.70;;;;;;;5.92;100.00;99569.13;5057255;28;20197;-73
2021/12/15 07:09:24;;;;;;;13.77;10.60;;;;;;;5.93;98.79;99570.78;5057470;28;20198;-73
2021/12/15 07:11:52;;;;;;;16.37;11.60;;;;;;;5.95;98.88;99571.44;5056923;28;20201;-73
2021/12/15 07:14:20;;;;;;;13.47;10.97;;;;;;;5.98;98.39;99576.41;5056939;28;20692;-72
2021/12/15 07:16:50;;;;;;;15.03;11.50;;;;;;;6.00;98.24;99582.34;5056900;28;20189;-73
2021/12/15 07:19:20;;;;;;;15.30;11.70;;;;;;;5.99;98.36;99586.81;5057517;28;20469;-72
2021/12/15 07:21:54;;;;;;;13.53;11.87;;;;;;;6.02;98.61;99585.69;5057197;28;20205;-73
2021/12/15 07:24:22;;;;;;;14.17;11.60;;;;;;;6.01;98.69;99591.97;5056805;28;20741;-75
2021/12/15 07:26:50;;;;;;;14.80;12.13;;;;;;;6.03;99.94;99592.63;5057070;28;20204;-75
2021/12/15 07:29:17;;;;;;;16.67;11.77;;;;;;;6.01;99.23;99599.88;5057455;28;20193;-74
2021/12/15 07:31:44;;;;;;;18.83;13.37;;;;;;;5.98;98.86;99608.91;5056203;28;20192;-75
2021/12/15 07:34:10;;;;;;;15.10;13.00;;;;;;;6.00;100.00;99606.13;5055902;28;20259;-74
2021/12/15 07:36:36;;;;;;;16.00;13.70;;;;;;;6.00;99.91;99616.69;5056214;28;20194;-74
2021/12/15 07:39:03;;;;;;;19.17;15.50;;;;;;;6.00;99.33;99620.16;5056747;28;20201;-75
2021/12/15 07:41:36;;;;;;;18.43;14.23;;;;;;;6.01;99.35;99621.00;5056500;28;20296;-75
2021/12/15 07:44:04;;;;;;;17.53;14.27;;;;;;;6.01;99.56;99627.09;5056757;28;20221;-74
2021/12/15 07:46:31;;;;;;;17.77;14.20;;;;;;;6.05;98.26;99627.59;5056294;28;20595;-75
2021/12/15 07:48:58;;;;;;;16.53;13.67;;;;;;;6.01;98.56;99623.66;5056692;28;20280;-74
2021/12/15 07:51:24;;;;;;;19.40;14.43;;;;;;;6.04;98.22;99624.16;5056466;28;20195;-75
2021/12/15 07:53:51;;;;;;;16.70;14.00;;;;;;;6.02;98.11;99627.94;5056441;28;20581;-75
2021/12/15 07:56:18;;;;;;;19.73;13.43;;;;;;;6.04;98.00;99631.22;5056377;28;20286;-74
2021/12/15 07:58:45;;;;;;;19.13;14.53;;;;;;;5.98;98.73;99632.66;5056053;28;20190;-74
2021/12/15 08:01:11;;;;;;;15.93;13.13;;;;;;;6.03;97.66;99622.50;5056591;28;20217;-75
2021/12/15 08:03:43;;;;;;;15.97;12.60;;;;;;;6.04;96.83;99631.22;5055311;28;20703;-75
2021/12/15 08:06:10;;;;;;;16.10;12.27;;;;;;;6.05;97.39;99640.81;5056532;28;20197;-75
2021/12/15 08:08:36;;;;;;;14.30;12.53;;;;;;;5.99;96.63;99642.28;5056049;28;20577;-74
2021/12/15 08:11:04;;;;;;;15.33;12.40;;;;;;;5.99;97.61;99641.44;5055977;28;20205;-75
2021/12/15 08:13:33;;;;;;;16.83;12.00;;;;;;;6.01;95.80;99636.84;5056330;28;20275;-74
2021/12/15 08:16:00;;;;;;;13.97;12.30;;;;;;;6.02;97.30;99647.22;5055990;28;20648;-75
2021/12/15 08:18:27;;;;;;;11.23;9.93;;;;;;;6.00;94.36;99638.63;5056172;28;20287;-74
2021/12/15 08:20:53;;;;;;;11.00;9.90;;;;;;;6.01;94.15;99637.66;5056345;28;20282;-75
2021/12/15 08:23:20;;;;;;;11.70;9.77;;;;;;;6.00;93.47;99635.16;5056289;28;20192;-74
2021/12/15 08:25:46;;;;;;;11.67;9.90;;;;;;;6.03;93.67;99643.63;5055911;28;20619;-74
2021/12/15 08:28:13;;;;;;;11.40;9.77;;;;;;;6.05;93.29;99646.09;5056172;28;20280;-75
2021/12/15 08:30:42;;;;;;;12.70;10.43;;;;;;;6.06;94.39;99645.94;5055719;28;20205;-75
2021/12/15 08:33:12;;;;;;;13.67;10.27;;;;;;;6.06;94.25;99651.22;5055735;28;20625;-74
2021/12/15 08:35:53;;;;;;;14.63;11.23;;;;;;;6.14;95.36;99647.81;5056137;28;20232;-75
2021/12/15 08:38:20;;;;;;;11.83;10.13;;;;;;;6.16;94.46;99653.78;5056063;28;20585;-75
2021/12/15 08:40:48;;;;;;;12.20;10.63;;;;;;;6.13;93.52;99656.72;5056245;28;20193;-75
2021/12/15 08:43:16;;;;;;;16.93;11.00;;;;;;;6.15;95.03;99660.88;5055671;28;20219;-75
2021/12/15 08:45:52;;;;;;;10.77;9.67;;;;;;;6.19;92.93;99656.94;5055973;28;20308;-75
2021/12/15 08:48:18;;;;;;;15.50;9.80;;;;;;;6.15;94.32;99663.50;5055970;28;20203;-74
2021/12/15 08:50:45;;;;;;;11.87;9.23;;;;;;;6.24;93.14;99672.34;5056136;28;20193;-75
2021/12/15 08:53:13;;;;;;;10.30;8.30;;;;;;;6.21;93.17;99670.84;5056037;28;20196;-75
2021/12/15 08:55:42;;;;;;;9.90;8.83;;;;;;;6.14;93.43;99674.22;5056654;28;20225;-75
2021/12/15 08:58:11;;;;;;;9.70;8.70;;;;;;;6.16;92.51;99667.00;5055886;28;20200;-75
2021/12/15 09:00:42;;;;;;;11.50;9.17;;;;;;;6.23;93.10;99663.59;5055808;28;20251;-75
2021/12/15 09:03:09;;;;;;;12.50;9.43;;;;;;;6.26;92.00;99662.47;5055505;28;20694;-75
2021/12/15 09:05:35;;;;;;;11.93;8.63;;;;;;;6.24;92.48;99669.72;5055869;28;20677;-75
2021/12/15 09:08:02;;;;;;;9.33;8.30;;;;;;;6.27;92.00;99662.31;5055929;28;20194;-74
2021/12/15 09:10:32;;;;;;;11.13;7.97;;;;;;;6.21;91.73;99668.22;5055473;28;20276;-74
2021/12/15 09:12:59;;;;;;;9.00;7.80;;;;;;;6.22;91.16;99666.38;5055813;28;20190;-74
2021/12/15 09:15:26;;;;;;;9.13;7.47;;;;;;;6.26;90.63;99662.47;5059719;28;20225;-75
2021/12/15 09:17:54;;;;;;;8.30;7.43;;;;;;;6.22;90.81;99671.66;5059617;28;20292;-75
2021/12/15 09:20:24;;;;;;;9.40;7.43;;;;;;;6.24;91.01;99664.44;5059627;28;20215;-75
2021/12/15 09:22:51;;;;;;;7.90;6.50;;;;;;;6.20;90.03;99663.06;5059207;28;20308;-75
2021/12/15 09:25:18;;;;;;;7.77;6.97;;;;;;;6.19;89.31;99664.06;5059373;28;20644;-75
2021/12/15 09:27:46;;;;;;;7.93;6.50;;;;;;;6.19;89.49;99685.19;5059094;28;20581;-72
2021/12/15 09:30:19;;;;;;;7.10;6.30;;;;;;;6.23;89.38;99673.31;5059253;28;20190;-73
2021/12/15 09:32:46;;;;;;;9.33;7.27;;;;;;;6.26;88.63;99668.56;5059247;28;20193;-72
2021/12/15 09:35:16;;;;;;;8.50;6.63;;;;;;;6.23;89.09;99676.78;5059217;28;20225;-73
2021/12/15 09:37:44;;;;;;;8.80;6.47;;;;;;;6.30;88.10;99679.66;5059300;28;20272;-73
2021/12/15 09:40:14;;;;;;;8.40;6.60;;;;;;;6.26;88.21;99687.06;5059286;28;20281;-72
2021/12/15 09:42:40;;;;;;;7.80;6.10;;;;;;;6.26;89.63;99683.59;5059174;28;20252;-73
2021/12/15 09:45:25;;;;;;;7.73;6.93;;;;;;;6.24;88.90;99688.19;5058753;28;20239;-73
2021/12/15 09:48:16;;;;;;;7.17;6.30;;;;;;;6.27;88.90;99687.88;5059012;28;20197;-73
2021/12/15 09:57:01;;;;;;;7.57;6.33;;;;;;;6.34;88.02;99695.03;5058982;28;20181;-73
2021/12/15 10:02:28;;;;;;;7.07;6.33;;;;;;;6.46;87.43;99685.06;5058925;28;20219;-72
2021/12/15 10:05:05;;;;;;;7.87;6.33;;;;;;;6.31;88.02;99682.16;5058990;28;20541;-72
2021/12/15 10:10:49;;;;;;;7.13;6.07;;;;;;;6.36;86.64;99685.16;5058653;28;20481;-72
2021/12/15 10:19:26;;;;;;;6.77;6.10;;;;;;;6.34;87.88;99681.00;5058087;28;20234;-73
2021/12/15 10:22:29;;;;;;;7.13;5.00;;;;;;;6.36;87.48;99681.69;5058168;28;20220;-73
2021/12/15 10:24:59;;;;;;;6.07;5.20;;;;;;;6.36;86.53;99684.31;5053281;28;20290;-73
2021/12/15 10:27:34;;;;;;;5.33;4.70;;;;;;;6.39;86.55;99673.47;5058030;28;20193;-73
2021/12/15 10:30:12;;;;;;;4.50;4.10;;;;;;;6.32;85.15;99673.25;5058239;28;20185;-75
2021/12/15 10:32:43;;;;;;;5.50;3.70;;;;;;;6.30;85.16;99674.38;5058567;28;20189;-75
2021/12/15 10:35:14;;;;;;;3.97;3.17;;;;;;;6.33;84.49;99674.09;5058064;28;20221;-74
2021/12/15 10:37:42;;;;;;;3.50;3.20;;;;;;;6.31;86.15;99678.66;5058098;28;20194;-74
2021/12/15 10:40:21;;;;;;;3.23;2.93;;;;;;;6.26;84.80;99673.84;5058297;28;20189;-75
2021/12/15 10:42:48;;;;;;;3.37;3.13;;;;;;;6.30;86.76;99680.50;5057852;28;20215;-75
2021/12/15 10:45:17;;;;;;;4.90;3.63;;;;;;;6.39;85.64;99673.47;5058154;28;20588;-73
2021/12/15 10:47:49;;;;;;;6.20;3.50;;;;;;;6.33;85.61;99664.31;5058017;28;20499;-73
2021/12/15 10:50:22;;;;;;;4.50;3.93;;;;;;;6.35;85.11;99669.47;5057852;28;20288;-73
2021/12/15 10:52:58;;;;;;;4.07;3.60;;;;;;;6.25;86.12;99674.00;5057781;28;20272;-73
2021/12/15 10:55:38;;;;;;;5.03;4.57;;;;;;;6.23;85.84;99663.59;5057457;28;20247;-73
2021/12/15 10:58:35;;;;;;;6.00;4.90;;;;;;;6.31;85.15;99661.03;5058142;28;20192;-72
2021/12/15 11:01:07;;;;;;;5.73;5.13;;;;;;;6.32;86.79;99656.56;5057349;28;20200;-73
2021/12/15 11:03:37;;;;;;;5.67;5.10;;;;;;;6.34;85.63;99659.88;5057071;28;20699;-72
2021/12/15 11:06:22;;;;;;;5.87;5.23;;;;;;;6.32;85.46;99665.31;5057150;28;20189;-73
2021/12/15 11:08:49;;;;;;;5.00;4.57;;;;;;;6.38;87.38;99671.81;5057487;28;20579;-73
2021/12/15 11:11:29;;;;;;;6.03;5.30;;;;;;;6.35;85.78;99666.81;5057251;28;20618;-73
2021/12/15 11:13:55;;;;;;;5.57;5.07;;;;;;;6.30;86.14;99661.16;5057198;28;20201;-73
2021/12/15 11:16:31;;;;;;;6.20;5.57;;;;;;;6.30;86.14;99662.00;5057293;28;20251;-73
2021/12/15 11:18:59;;;;;;;5.13;4.73;;;;;;;6.34;85.12;99658.06;5057440;28;20199;-73
2021/12/15 11:21:32;;;;;;;5.47;5.07;;;;;;;6.39;87.18;99652.31;5057718;28;20193;-73
2021/12/15 11:23:58;;;;;;;5.63;5.13;;;;;;;6.40;86.33;99646.06;5057104;28;20257;-73
2021/12/15 11:26:25;;;;;;;5.80;5.20;;;;;;;6.30;85.60;99655.88;5057121;28;20207;-72
2021/12/15 11:28:51;;;;;;;6.27;5.07;;;;;;;6.20;85.37;99657.78;5057181;28;20233;-73
2021/12/15 11:31:22;;;;;;;5.30;4.80;;;;;;;6.25;84.91;99642.31;5056688;28;20212;-73
2021/12/15 11:34:00;;;;;;;6.37;5.00;;;;;;;6.35;84.74;99640.41;5056582;28;20185;-73
2021/12/15 11:36:44;;;;;;;6.03;4.80;;;;;;;6.25;85.55;99643.13;5056525;28;20197;-72
2021/12/15 11:39:16;;;;;;;6.13;5.43;;;;;;;6.19;85.87;99642.94;5057299;28;20189;-73
2021/12/15 11:41:54;;;;;;;6.00;5.33;;;;;;;6.33;84.73;99640.56;5056470;28;20190;-73
2021/12/15 11:44:23;;;;;;;5.60;5.10;;;;;;;6.16;85.52;99651.97;5057115;28;20229;-73
2021/12/15 11:47:07;;;;;;;4.73;4.30;;;;;;;6.16;86.81;99645.88;5056848;28;20189;-73
2021/12/15 11:49:37;;;;;;;4.63;4.23;;;;;;;6.16;84.99;99638.75;5056530;28;20190;-72
2021/12/15 11:52:08;;;;;;;4.70;4.30;;;;;;;6.12;86.06;99639.22;5056507;28;20190;-73
2021/12/15 11:54:37;;;;;;;4.73;4.33;;;;;;;6.12;85.56;99626.03;5056582;28;20221;-73
2021/12/15 11:57:09;;;;;;;4.07;3.77;;;;;;;6.23;85.11;99618.69;5056195;28;20190;-73
2021/12/15 11:59:42;;;;;;;5.77;5.27;;;;;;;6.45;84.64;99620.84;5056108;28;20204;-73
2021/12/15 12:02:27;;;;;;;5.03;4.13;;;;;;;6.14;85.05;99621.41;5056199;28;20300;-75
2021/12/15 12:05:07;;;;;;;5.83;5.00;;;;;;;6.37;85.13;99617.28;5056463;28;20228;-72
2021/12/15 12:07:35;;;;;;;4.50;4.10;;;;;;;6.36;84.25;99620.94;5056308;28;20551;-72
2021/12/15 12:10:16;;;;;;;5.17;4.77;;;;;;;6.31;84.84;99617.91;5056079;28;20277;-72
2021/12/15 12:12:51;;;;;;;4.63;4.17;;;;;;;6.28;84.39;99619.06;5055556;28;20280;-72
2021/12/15 12:15:22;;;;;;;5.50;5.00;;;;;;;6.25;85.50;99603.50;5055476;28;20559;-73
2021/12/15 12:17:51;;;;;;;5.67;5.17;;;;;;;6.44;84.16;99605.97;5055390;28;20185;-72
2021/12/15 12:20:30;;;;;;;5.90;5.30;;;;;;;6.53;83.90;99618.25;5055917;28;20267;-74
2021/12/15 12:23:00;;;;;;;5.40;4.90;;;;;;;6.47;84.78;99600.38;5054841;28;20213;-73
2021/12/15 12:25:38;;;;;;;5.93;5.33;;;;;;;6.43;85.02;99606.13;5054941;28;20523;-72
2021/12/15 12:28:08;;;;;;;5.73;5.23;;;;;;;6.39;85.78;99604.78;5055900;28;20247;-72
2021/12/15 12:30:45;;;;;;;5.80;5.13;;;;;;;6.65;83.92;99605.63;5056158;28;20189;-72
2021/12/15 12:33:14;;;;;;;4.07;3.77;;;;;;;6.35;83.67;99606.06;5056228;28;20280;-72
2021/12/15 12:36:05;;;;;;;4.17;3.80;;;;;;;6.43;85.47;99603.50;5055703;28;20226;-72
2021/12/15 12:38:34;;;;;;;3.60;3.30;;;;;;;6.46;84.35;99605.78;5055561;28;20197;-72